sensor_id;sensor_type;location;lat;lon;timestamp;P1;durP1;ratioP1;P2;durP2;ratioP2
6523;SDS011;3295;38.928;-77.052;2023-07-28T00:01:54;6.30;;;3.60;;
6523;SDS011;3295;38.928;-77.052;2023-07-28T00:04:21;8.40;;;3.97;;
6523;SDS011;3295;38.928;-77.052;2023-07-28T00:06:48;6.50;;;3.72;;
6523;SDS011;3295;38.928;-77.052;2023-07-28T00:09:16;6.55;;;4.15;;
6523;SDS011;3295;38.928;-77.052;2023-07-28T00:11:45;9.00;;;3.92;;
6523;SDS011;3295;38.928;-77.052;2023-07-28T00:14:13;6.43;;;3.60;;
6523;SDS011;3295;38.928;-77.052;2023-07-28T00:16:40;7.88;;;4.13;;
6523;SDS011;3295;38.928;-77.052;2023-07-28T00:19:08;8.55;;;4.00;;
6523;SDS011;3295;38.928;-77.052;2023-07-28T00:21:36;10.48;;;4.15;;
6523;SDS011;3295;38.928;-77.052;2023-07-28T00:24:05;7.20;;;4.30;;
6523;SDS011;3295;38.928;-77.052;2023-07-28T00:26:33;9.52;;;4.03;;
6523;SDS011;3295;38.928;-77.052;2023-07-28T00:29:01;8.30;;;4.53;;
6523;SDS011;3295;38.928;-77.052;2023-07-28T00:31:31;8.10;;;4.18;;
6523;SDS011;3295;38.928;-77.052;2023-07-28T00:33:59;8.00;;;4.13;;
6523;SDS011;3295;38.928;-77.052;2023-07-28T00:36:26;7.18;;;3.78;;
6523;SDS011;3295;38.928;-77.052;2023-07-28T00:38:53;9.70;;;4.50;;
6523;SDS011;3295;38.928;-77.052;2023-07-28T00:41:22;10.15;;;4.43;;
6523;SDS011;3295;38.928;-77.052;2023-07-28T00:43:49;8.68;;;4.38;;
6523;SDS011;3295;38.928;-77.052;2023-07-28T00:46:19;7.82;;;4.43;;
6523;SDS011;3295;38.928;-77.052;2023-07-28T00:48:46;6.88;;;3.80;;
6523;SDS011;3295;38.928;-77.052;2023-07-28T00:51:15;8.27;;;4.43;;
6523;SDS011;3295;38.928;-77.052;2023-07-28T00:53:42;6.55;;;3.67;;
6523;SDS011;3295;38.928;-77.052;2023-07-28T00:56:10;7.93;;;4.10;;
6523;SDS011;3295;38.928;-77.052;2023-07-28T00:58:37;7.07;;;3.95;;
6523;SDS011;3295;38.928;-77.052;2023-07-28T01:01:05;8.05;;;4.25;;
6523;SDS011;3295;38.928;-77.052;2023-07-28T01:03:34;7.20;;;4.32;;
6523;SDS011;3295;38.928;-77.052;2023-07-28T01:06:06;8.02;;;4.53;;
6523;SDS011;3295;38.928;-77.052;2023-07-28T01:08:38;9.45;;;4.20;;
6523;SDS011;3295;38.928;-77.052;2023-07-28T01:11:07;7.18;;;4.22;;
6523;SDS011;3295;38.928;-77.052;2023-07-28T01:13:35;9.70;;;4.40;;
6523;SDS011;3295;38.928;-77.052;2023-07-28T01:16:02;8.15;;;4.47;;
6523;SDS011;3295;38.928;-77.052;2023-07-28T01:18:30;7.10;;;3.90;;
6523;SDS011;3295;38.928;-77.052;2023-07-28T01:21:00;9.18;;;4.60;;
6523;SDS011;3295;38.928;-77.052;2023-07-28T01:23:30;7.40;;;4.18;;
6523;SDS011;3295;38.928;-77.052;2023-07-28T01:26:03;7.18;;;4.13;;
6523;SDS011;3295;38.928;-77.052;2023-07-28T01:28:34;7.38;;;4.00;;
6523;SDS011;3295;38.928;-77.052;2023-07-28T01:31:02;7.75;;;4.00;;
6523;SDS011;3295;38.928;-77.052;2023-07-28T01:33:29;7.88;;;4.43;;
6523;SDS011;3295;38.928;-77.052;2023-07-28T01:35:57;8.18;;;4.15;;
6523;SDS011;3295;38.928;-77.052;2023-07-28T01:38:26;7.60;;;4.28;;
6523;SDS011;3295;38.928;-77.052;2023-07-28T01:40:54;6.53;;;4.10;;
6523;SDS011;3295;38.928;-77.052;2023-07-28T01:43:22;9.32;;;3.50;;
6523;SDS011;3295;38.928;-77.052;2023-07-28T01:45:51;10.65;;;4.28;;
6523;SDS011;3295;38.928;-77.052;2023-07-28T01:48:18;7.07;;;3.88;;
6523;SDS011;3295;38.928;-77.052;2023-07-28T01:50:47;7.63;;;4.20;;
6523;SDS011;3295;38.928;-77.052;2023-07-28T01:53:15;9.23;;;4.65;;
6523;SDS011;3295;38.928;-77.052;2023-07-28T01:55:43;8.48;;;4.53;;
6523;SDS011;3295;38.928;-77.052;2023-07-28T01:58:11;7.10;;;3.90;;
6523;SDS011;3295;38.928;-77.052;2023-07-28T02:00:38;13.32;;;4.25;;
6523;SDS011;3295;38.928;-77.052;2023-07-28T02:03:08;5.30;;;3.50;;
6523;SDS011;3295;38.928;-77.052;2023-07-28T02:05:36;7.72;;;3.85;;
6523;SDS011;3295;38.928;-77.052;2023-07-28T02:08:04;9.02;;;4.30;;
6523;SDS011;3295;38.928;-77.052;2023-07-28T02:10:32;6.10;;;3.92;;
6523;SDS011;3295;38.928;-77.052;2023-07-28T02:12:59;7.72;;;3.80;;
6523;SDS011;3295;38.928;-77.052;2023-07-28T02:15:27;7.70;;;3.85;;
6523;SDS011;3295;38.928;-77.052;2023-07-28T02:17:54;6.97;;;3.65;;
6523;SDS011;3295;38.928;-77.052;2023-07-28T02:20:24;6.65;;;3.95;;
6523;SDS011;3295;38.928;-77.052;2023-07-28T02:22:51;7.72;;;4.22;;
6523;SDS011;3295;38.928;-77.052;2023-07-28T02:25:19;9.68;;;4.25;;
6523;SDS011;3295;38.928;-77.052;2023-07-28T02:27:47;8.38;;;4.13;;
6523;SDS011;3295;38.928;-77.052;2023-07-28T02:30:14;6.40;;;3.92;;
6523;SDS011;3295;38.928;-77.052;2023-07-28T02:32:43;7.55;;;4.00;;
6523;SDS011;3295;38.928;-77.052;2023-07-28T02:35:11;7.93;;;4.30;;
6523;SDS011;3295;38.928;-77.052;2023-07-28T02:37:40;6.13;;;3.60;;
6523;SDS011;3295;38.928;-77.052;2023-07-28T02:40:10;8.18;;;4.03;;
6523;SDS011;3295;38.928;-77.052;2023-07-28T02:42:38;8.60;;;3.75;;
6523;SDS011;3295;38.928;-77.052;2023-07-28T02:45:06;7.68;;;4.32;;
6523;SDS011;3295;38.928;-77.052;2023-07-28T02:47:35;7.50;;;3.65;;
6523;SDS011;3295;38.928;-77.052;2023-07-28T02:50:03;6.72;;;3.75;;
6523;SDS011;3295;38.928;-77.052;2023-07-28T02:52:30;7.72;;;4.13;;
6523;SDS011;3295;38.928;-77.052;2023-07-28T02:54:59;6.05;;;3.38;;
6523;SDS011;3295;38.928;-77.052;2023-07-28T02:57:26;7.55;;;3.67;;
6523;SDS011;3295;38.928;-77.052;2023-07-28T02:59:54;6.72;;;3.60;;
6523;SDS011;3295;38.928;-77.052;2023-07-28T03:02:22;6.93;;;4.00;;
6523;SDS011;3295;38.928;-77.052;2023-07-28T03:04:49;7.55;;;3.65;;
6523;SDS011;3295;38.928;-77.052;2023-07-28T03:07:17;12.77;;;4.20;;
6523;SDS011;3295;38.928;-77.052;2023-07-28T03:09:44;7.22;;;3.38;;
6523;SDS011;3295;38.928;-77.052;2023-07-28T03:12:14;10.32;;;4.60;;
6523;SDS011;3295;38.928;-77.052;2023-07-28T03:14:42;6.10;;;3.55;;
6523;SDS011;3295;38.928;-77.052;2023-07-28T03:17:09;7.80;;;3.88;;
6523;SDS011;3295;38.928;-77.052;2023-07-28T03:19:37;7.82;;;3.63;;
6523;SDS011;3295;38.928;-77.052;2023-07-28T03:22:04;6.18;;;3.50;;
6523;SDS011;3295;38.928;-77.052;2023-07-28T03:24:32;7.80;;;3.60;;
6523;SDS011;3295;38.928;-77.052;2023-07-28T03:26:59;7.22;;;3.60;;
6523;SDS011;3295;38.928;-77.052;2023-07-28T03:29:33;6.05;;;3.78;;
6523;SDS011;3295;38.928;-77.052;2023-07-28T03:32:01;7.32;;;3.72;;
6523;SDS011;3295;38.928;-77.052;2023-07-28T03:34:28;13.05;;;5.40;;
6523;SDS011;3295;38.928;-77.052;2023-07-28T03:36:55;7.50;;;4.32;;
6523;SDS011;3295;38.928;-77.052;2023-07-28T03:39:22;7.03;;;3.60;;
6523;SDS011;3295;38.928;-77.052;2023-07-28T03:41:49;6.85;;;3.75;;
6523;SDS011;3295;38.928;-77.052;2023-07-28T03:44:21;8.25;;;3.55;;
6523;SDS011;3295;38.928;-77.052;2023-07-28T03:46:51;6.97;;;3.38;;
6523;SDS011;3295;38.928;-77.052;2023-07-28T03:49:18;7.40;;;4.03;;
6523;SDS011;3295;38.928;-77.052;2023-07-28T03:51:46;6.38;;;3.75;;
6523;SDS011;3295;38.928;-77.052;2023-07-28T03:54:14;7.95;;;4.18;;
6523;SDS011;3295;38.928;-77.052;2023-07-28T03:56:41;5.60;;;3.75;;
6523;SDS011;3295;38.928;-77.052;2023-07-28T03:59:09;8.37;;;3.90;;
6523;SDS011;3295;38.928;-77.052;2023-07-28T04:01:36;6.82;;;3.75;;
6523;SDS011;3295;38.928;-77.052;2023-07-28T04:04:05;6.80;;;3.70;;
6523;SDS011;3295;38.928;-77.052;2023-07-28T04:06:39;8.33;;;3.60;;
6523;SDS011;3295;38.928;-77.052;2023-07-28T04:09:06;7.27;;;3.80;;
6523;SDS011;3295;38.928;-77.052;2023-07-28T04:11:33;7.30;;;4.20;;
6523;SDS011;3295;38.928;-77.052;2023-07-28T04:14:01;5.67;;;3.47;;
6523;SDS011;3295;38.928;-77.052;2023-07-28T04:16:29;9.07;;;4.40;;
6523;SDS011;3295;38.928;-77.052;2023-07-28T04:18:57;7.70;;;4.20;;
6523;SDS011;3295;38.928;-77.052;2023-07-28T04:21:26;8.07;;;3.77;;
6523;SDS011;3295;38.928;-77.052;2023-07-28T04:23:53;9.47;;;4.30;;
6523;SDS011;3295;38.928;-77.052;2023-07-28T04:26:21;10.57;;;4.07;;
6523;SDS011;3295;38.928;-77.052;2023-07-28T04:28:49;8.47;;;3.50;;
6523;SDS011;3295;38.928;-77.052;2023-07-28T04:31:17;10.70;;;4.10;;
6523;SDS011;3295;38.928;-77.052;2023-07-28T04:33:44;6.37;;;3.93;;
6523;SDS011;3295;38.928;-77.052;2023-07-28T04:36:12;5.90;;;3.43;;
6523;SDS011;3295;38.928;-77.052;2023-07-28T04:38:41;8.43;;;4.10;;
6523;SDS011;3295;38.928;-77.052;2023-07-28T04:41:11;6.73;;;3.67;;
6523;SDS011;3295;38.928;-77.052;2023-07-28T04:43:38;6.73;;;4.40;;
6523;SDS011;3295;38.928;-77.052;2023-07-28T04:46:06;8.57;;;4.17;;
6523;SDS011;3295;38.928;-77.052;2023-07-28T04:48:33;8.37;;;4.00;;
6523;SDS011;3295;38.928;-77.052;2023-07-28T04:51:00;9.67;;;3.90;;
6523;SDS011;3295;38.928;-77.052;2023-07-28T04:53:28;6.93;;;3.77;;
6523;SDS011;3295;38.928;-77.052;2023-07-28T04:55:57;7.00;;;3.87;;
6523;SDS011;3295;38.928;-77.052;2023-07-28T04:58:24;14.63;;;4.10;;
6523;SDS011;3295;38.928;-77.052;2023-07-28T05:00:54;9.97;;;4.70;;
6523;SDS011;3295;38.928;-77.052;2023-07-28T05:03:23;8.20;;;3.70;;
6523;SDS011;3295;38.928;-77.052;2023-07-28T05:05:50;7.43;;;4.07;;
6523;SDS011;3295;38.928;-77.052;2023-07-28T05:08:18;9.50;;;3.93;;
6523;SDS011;3295;38.928;-77.052;2023-07-28T05:10:44;7.27;;;3.97;;
6523;SDS011;3295;38.928;-77.052;2023-07-28T05:13:13;7.27;;;3.77;;
6523;SDS011;3295;38.928;-77.052;2023-07-28T05:15:40;6.97;;;3.93;;
6523;SDS011;3295;38.928;-77.052;2023-07-28T05:18:08;6.87;;;3.93;;
6523;SDS011;3295;38.928;-77.052;2023-07-28T05:20:35;8.33;;;3.87;;
6523;SDS011;3295;38.928;-77.052;2023-07-28T05:23:02;7.53;;;4.07;;
6523;SDS011;3295;38.928;-77.052;2023-07-28T05:25:30;6.07;;;3.43;;
6523;SDS011;3295;38.928;-77.052;2023-07-28T05:27:57;7.97;;;3.70;;
6523;SDS011;3295;38.928;-77.052;2023-07-28T05:30:27;7.67;;;3.80;;
6523;SDS011;3295;38.928;-77.052;2023-07-28T05:32:56;5.53;;;3.60;;
6523;SDS011;3295;38.928;-77.052;2023-07-28T05:35:23;8.43;;;4.27;;
6523;SDS011;3295;38.928;-77.052;2023-07-28T05:37:50;6.47;;;3.80;;
6523;SDS011;3295;38.928;-77.052;2023-07-28T05:40:18;7.13;;;4.00;;
6523;SDS011;3295;38.928;-77.052;2023-07-28T05:42:45;6.70;;;3.83;;
6523;SDS011;3295;38.928;-77.052;2023-07-28T05:45:13;6.07;;;3.87;;
6523;SDS011;3295;38.928;-77.052;2023-07-28T05:47:41;12.30;;;4.30;;
6523;SDS011;3295;38.928;-77.052;2023-07-28T05:50:09;7.27;;;3.87;;
6523;SDS011;3295;38.928;-77.052;2023-07-28T05:52:38;7.17;;;3.83;;
6523;SDS011;3295;38.928;-77.052;2023-07-28T05:55:06;8.50;;;4.33;;
6523;SDS011;3295;38.928;-77.052;2023-07-28T05:57:34;7.20;;;4.10;;
6523;SDS011;3295;38.928;-77.052;2023-07-28T06:00:01;8.20;;;4.00;;
6523;SDS011;3295;38.928;-77.052;2023-07-28T06:02:29;7.40;;;4.00;;
6523;SDS011;3295;38.928;-77.052;2023-07-28T06:04:58;8.77;;;4.37;;
6523;SDS011;3295;38.928;-77.052;2023-07-28T06:07:25;5.97;;;3.47;;
6523;SDS011;3295;38.928;-77.052;2023-07-28T06:09:53;7.03;;;3.77;;
6523;SDS011;3295;38.928;-77.052;2023-07-28T06:12:22;5.80;;;3.47;;
6523;SDS011;3295;38.928;-77.052;2023-07-28T06:14:49;7.37;;;3.97;;
6523;SDS011;3295;38.928;-77.052;2023-07-28T06:17:18;6.90;;;3.60;;
6523;SDS011;3295;38.928;-77.052;2023-07-28T06:19:46;8.40;;;4.10;;
6523;SDS011;3295;38.928;-77.052;2023-07-28T06:22:15;11.10;;;3.73;;
6523;SDS011;3295;38.928;-77.052;2023-07-28T06:24:42;6.77;;;3.73;;
6523;SDS011;3295;38.928;-77.052;2023-07-28T06:27:10;6.10;;;3.63;;
6523;SDS011;3295;38.928;-77.052;2023-07-28T06:29:37;7.30;;;4.13;;
6523;SDS011;3295;38.928;-77.052;2023-07-28T06:32:06;6.87;;;3.93;;
6523;SDS011;3295;38.928;-77.052;2023-07-28T06:34:33;7.37;;;3.57;;
6523;SDS011;3295;38.928;-77.052;2023-07-28T06:37:01;8.47;;;3.60;;
6523;SDS011;3295;38.928;-77.052;2023-07-28T06:39:32;7.60;;;3.87;;
6523;SDS011;3295;38.928;-77.052;2023-07-28T06:41:59;10.10;;;4.00;;
6523;SDS011;3295;38.928;-77.052;2023-07-28T06:44:26;6.53;;;3.87;;
6523;SDS011;3295;38.928;-77.052;2023-07-28T06:46:55;6.43;;;3.77;;
6523;SDS011;3295;38.928;-77.052;2023-07-28T06:49:22;6.47;;;4.10;;
6523;SDS011;3295;38.928;-77.052;2023-07-28T06:51:50;6.07;;;3.90;;
6523;SDS011;3295;38.928;-77.052;2023-07-28T06:54:18;6.27;;;3.73;;
6523;SDS011;3295;38.928;-77.052;2023-07-28T06:56:48;8.47;;;4.57;;
6523;SDS011;3295;38.928;-77.052;2023-07-28T06:59:15;7.20;;;4.03;;
6523;SDS011;3295;38.928;-77.052;2023-07-28T07:01:42;7.57;;;3.70;;
6523;SDS011;3295;38.928;-77.052;2023-07-28T07:04:10;8.47;;;4.17;;
6523;SDS011;3295;38.928;-77.052;2023-07-28T07:06:37;7.77;;;4.33;;
6523;SDS011;3295;38.928;-77.052;2023-07-28T07:09:05;6.57;;;3.67;;
6523;SDS011;3295;38.928;-77.052;2023-07-28T07:11:33;6.27;;;3.57;;
6523;SDS011;3295;38.928;-77.052;2023-07-28T07:14:02;7.63;;;3.57;;
6523;SDS011;3295;38.928;-77.052;2023-07-28T07:16:30;8.20;;;4.33;;
6523;SDS011;3295;38.928;-77.052;2023-07-28T07:18:57;8.87;;;3.73;;
6523;SDS011;3295;38.928;-77.052;2023-07-28T07:21:26;9.83;;;3.97;;
6523;SDS011;3295;38.928;-77.052;2023-07-28T07:23:54;6.33;;;3.60;;
6523;SDS011;3295;38.928;-77.052;2023-07-28T07:26:21;6.77;;;3.70;;
6523;SDS011;3295;38.928;-77.052;2023-07-28T07:28:48;7.47;;;4.40;;
6523;SDS011;3295;38.928;-77.052;2023-07-28T07:31:18;7.07;;;3.77;;
6523;SDS011;3295;38.928;-77.052;2023-07-28T07:33:46;7.03;;;3.70;;
6523;SDS011;3295;38.928;-77.052;2023-07-28T07:36:13;13.20;;;4.23;;
6523;SDS011;3295;38.928;-77.052;2023-07-28T07:38:41;5.70;;;3.70;;
6523;SDS011;3295;38.928;-77.052;2023-07-28T07:41:11;6.33;;;3.53;;
6523;SDS011;3295;38.928;-77.052;2023-07-28T07:43:41;7.60;;;3.90;;
6523;SDS011;3295;38.928;-77.052;2023-07-28T07:46:09;8.07;;;4.07;;
6523;SDS011;3295;38.928;-77.052;2023-07-28T07:48:38;8.40;;;4.00;;
6523;SDS011;3295;38.928;-77.052;2023-07-28T07:51:06;8.03;;;4.17;;
6523;SDS011;3295;38.928;-77.052;2023-07-28T07:53:33;6.80;;;3.97;;
6523;SDS011;3295;38.928;-77.052;2023-07-28T07:56:01;8.47;;;4.07;;
6523;SDS011;3295;38.928;-77.052;2023-07-28T07:58:29;9.67;;;3.80;;
6523;SDS011;3295;38.928;-77.052;2023-07-28T08:00:56;6.80;;;3.77;;
6523;SDS011;3295;38.928;-77.052;2023-07-28T08:03:24;8.50;;;4.30;;
6523;SDS011;3295;38.928;-77.052;2023-07-28T08:05:55;7.43;;;3.90;;
6523;SDS011;3295;38.928;-77.052;2023-07-28T08:08:24;7.03;;;3.77;;
6523;SDS011;3295;38.928;-77.052;2023-07-28T08:10:52;9.20;;;4.10;;
6523;SDS011;3295;38.928;-77.052;2023-07-28T08:13:20;8.33;;;4.13;;
6523;SDS011;3295;38.928;-77.052;2023-07-28T08:15:48;7.87;;;4.23;;
6523;SDS011;3295;38.928;-77.052;2023-07-28T08:18:17;8.40;;;3.93;;
6523;SDS011;3295;38.928;-77.052;2023-07-28T08:20:44;5.83;;;3.97;;
6523;SDS011;3295;38.928;-77.052;2023-07-28T08:23:13;12.00;;;3.87;;
6523;SDS011;3295;38.928;-77.052;2023-07-28T08:25:42;7.17;;;3.97;;
6523;SDS011;3295;38.928;-77.052;2023-07-28T08:28:09;7.20;;;3.93;;
6523;SDS011;3295;38.928;-77.052;2023-07-28T08:30:37;7.20;;;4.10;;
6523;SDS011;3295;38.928;-77.052;2023-07-28T08:33:05;6.50;;;3.67;;
6523;SDS011;3295;38.928;-77.052;2023-07-28T08:35:32;7.17;;;4.20;;
6523;SDS011;3295;38.928;-77.052;2023-07-28T08:38:00;8.90;;;3.93;;
6523;SDS011;3295;38.928;-77.052;2023-07-28T08:40:29;7.67;;;4.30;;
6523;SDS011;3295;38.928;-77.052;2023-07-28T08:42:56;7.03;;;3.90;;
6523;SDS011;3295;38.928;-77.052;2023-07-28T08:45:24;11.27;;;3.77;;
6523;SDS011;3295;38.928;-77.052;2023-07-28T08:47:51;9.60;;;4.43;;
6523;SDS011;3295;38.928;-77.052;2023-07-28T08:50:19;6.93;;;3.97;;
6523;SDS011;3295;38.928;-77.052;2023-07-28T08:52:47;8.13;;;4.10;;
6523;SDS011;3295;38.928;-77.052;2023-07-28T08:55:16;6.17;;;3.80;;
6523;SDS011;3295;38.928;-77.052;2023-07-28T08:57:45;9.30;;;4.17;;
6523;SDS011;3295;38.928;-77.052;2023-07-28T09:00:13;9.30;;;4.20;;
6523;SDS011;3295;38.928;-77.052;2023-07-28T09:02:43;8.73;;;4.27;;
6523;SDS011;3295;38.928;-77.052;2023-07-28T09:05:16;7.80;;;3.97;;
6523;SDS011;3295;38.928;-77.052;2023-07-28T09:07:43;8.30;;;4.13;;
6523;SDS011;3295;38.928;-77.052;2023-07-28T09:10:11;8.40;;;4.17;;
6523;SDS011;3295;38.928;-77.052;2023-07-28T09:12:45;7.57;;;3.93;;
6523;SDS011;3295;38.928;-77.052;2023-07-28T09:15:13;9.47;;;4.17;;
6523;SDS011;3295;38.928;-77.052;2023-07-28T09:17:41;7.77;;;4.17;;
6523;SDS011;3295;38.928;-77.052;2023-07-28T09:20:09;9.83;;;4.17;;
6523;SDS011;3295;38.928;-77.052;2023-07-28T09:22:40;7.80;;;4.20;;
6523;SDS011;3295;38.928;-77.052;2023-07-28T09:25:11;7.93;;;4.03;;
6523;SDS011;3295;38.928;-77.052;2023-07-28T09:27:39;7.00;;;3.87;;
6523;SDS011;3295;38.928;-77.052;2023-07-28T09:30:09;8.93;;;4.40;;
6523;SDS011;3295;38.928;-77.052;2023-07-28T09:32:40;7.77;;;4.33;;
6523;SDS011;3295;38.928;-77.052;2023-07-28T09:35:13;7.03;;;3.90;;
6523;SDS011;3295;38.928;-77.052;2023-07-28T09:37:41;7.07;;;4.00;;
6523;SDS011;3295;38.928;-77.052;2023-07-28T09:40:09;7.83;;;3.90;;
6523;SDS011;3295;38.928;-77.052;2023-07-28T09:42:40;8.23;;;3.80;;
6523;SDS011;3295;38.928;-77.052;2023-07-28T09:45:09;7.13;;;4.13;;
6523;SDS011;3295;38.928;-77.052;2023-07-28T09:47:37;7.80;;;4.37;;
6523;SDS011;3295;38.928;-77.052;2023-07-28T09:50:05;6.57;;;4.00;;
6523;SDS011;3295;38.928;-77.052;2023-07-28T09:52:34;7.43;;;4.57;;
6523;SDS011;3295;38.928;-77.052;2023-07-28T09:55:04;7.40;;;4.27;;
6523;SDS011;3295;38.928;-77.052;2023-07-28T09:57:33;11.33;;;4.50;;
6523;SDS011;3295;38.928;-77.052;2023-07-28T10:00:01;8.03;;;4.00;;
6523;SDS011;3295;38.928;-77.052;2023-07-28T10:02:31;7.87;;;4.30;;
6523;SDS011;3295;38.928;-77.052;2023-07-28T10:04:59;8.27;;;4.10;;
6523;SDS011;3295;38.928;-77.052;2023-07-28T10:07:26;7.70;;;4.20;;
6523;SDS011;3295;38.928;-77.052;2023-07-28T10:09:53;8.00;;;4.27;;
6523;SDS011;3295;38.928;-77.052;2023-07-28T10:12:23;8.50;;;4.00;;
6523;SDS011;3295;38.928;-77.052;2023-07-28T10:14:59;8.73;;;3.83;;
6523;SDS011;3295;38.928;-77.052;2023-07-28T10:17:32;7.33;;;4.10;;
6523;SDS011;3295;38.928;-77.052;2023-07-28T10:20:01;9.70;;;4.00;;
6523;SDS011;3295;38.928;-77.052;2023-07-28T10:22:32;6.60;;;4.00;;
6523;SDS011;3295;38.928;-77.052;2023-07-28T10:25:00;6.57;;;3.93;;
6523;SDS011;3295;38.928;-77.052;2023-07-28T10:27:29;6.47;;;3.90;;
6523;SDS011;3295;38.928;-77.052;2023-07-28T10:29:56;9.10;;;4.33;;
6523;SDS011;3295;38.928;-77.052;2023-07-28T10:32:28;7.53;;;4.10;;
6523;SDS011;3295;38.928;-77.052;2023-07-28T10:35:03;8.70;;;3.97;;
6523;SDS011;3295;38.928;-77.052;2023-07-28T10:37:33;7.63;;;4.20;;
6523;SDS011;3295;38.928;-77.052;2023-07-28T10:42:47;8.73;;;4.70;;
6523;SDS011;3295;38.928;-77.052;2023-07-28T10:45:15;8.83;;;4.30;;
6523;SDS011;3295;38.928;-77.052;2023-07-28T10:47:42;7.63;;;4.00;;
6523;SDS011;3295;38.928;-77.052;2023-07-28T10:50:12;8.70;;;4.20;;
6523;SDS011;3295;38.928;-77.052;2023-07-28T10:52:39;6.83;;;4.17;;
6523;SDS011;3295;38.928;-77.052;2023-07-28T10:55:11;9.60;;;4.33;;
6523;SDS011;3295;38.928;-77.052;2023-07-28T10:57:39;7.97;;;4.20;;
6523;SDS011;3295;38.928;-77.052;2023-07-28T11:00:08;8.97;;;4.23;;
6523;SDS011;3295;38.928;-77.052;2023-07-28T11:02:37;7.77;;;4.17;;
6523;SDS011;3295;38.928;-77.052;2023-07-28T11:05:05;7.00;;;4.07;;
6523;SDS011;3295;38.928;-77.052;2023-07-28T11:07:35;8.67;;;4.30;;
6523;SDS011;3295;38.928;-77.052;2023-07-28T11:10:02;8.23;;;4.43;;
6523;SDS011;3295;38.928;-77.052;2023-07-28T11:12:32;10.60;;;4.43;;
6523;SDS011;3295;38.928;-77.052;2023-07-28T11:14:59;7.43;;;4.07;;
6523;SDS011;3295;38.928;-77.052;2023-07-28T11:17:27;7.40;;;4.10;;
6523;SDS011;3295;38.928;-77.052;2023-07-28T11:19:55;8.30;;;4.33;;
6523;SDS011;3295;38.928;-77.052;2023-07-28T11:22:22;8.30;;;4.00;;
6523;SDS011;3295;38.928;-77.052;2023-07-28T11:24:52;8.97;;;3.90;;
6523;SDS011;3295;38.928;-77.052;2023-07-28T11:27:20;7.40;;;4.27;;
6523;SDS011;3295;38.928;-77.052;2023-07-28T11:29:49;8.10;;;4.30;;
6523;SDS011;3295;38.928;-77.052;2023-07-28T11:32:17;7.77;;;4.13;;
6523;SDS011;3295;38.928;-77.052;2023-07-28T11:34:44;8.10;;;4.17;;
6523;SDS011;3295;38.928;-77.052;2023-07-28T11:37:11;7.47;;;3.90;;
6523;SDS011;3295;38.928;-77.052;2023-07-28T11:39:39;7.37;;;4.20;;
6523;SDS011;3295;38.928;-77.052;2023-07-28T11:42:08;8.90;;;3.90;;
6523;SDS011;3295;38.928;-77.052;2023-07-28T11:44:36;9.87;;;4.00;;
6523;SDS011;3295;38.928;-77.052;2023-07-28T11:47:04;7.17;;;4.07;;
6523;SDS011;3295;38.928;-77.052;2023-07-28T11:49:32;9.00;;;4.70;;
6523;SDS011;3295;38.928;-77.052;2023-07-28T11:52:01;9.90;;;5.33;;
6523;SDS011;3295;38.928;-77.052;2023-07-28T11:54:29;10.53;;;5.30;;
6523;SDS011;3295;38.928;-77.052;2023-07-28T11:56:57;14.57;;;5.77;;
6523;SDS011;3295;38.928;-77.052;2023-07-28T11:59:26;10.18;;;5.60;;
6523;SDS011;3295;38.928;-77.052;2023-07-28T12:01:54;13.70;;;5.70;;
6523;SDS011;3295;38.928;-77.052;2023-07-28T12:04:23;9.33;;;5.30;;
6523;SDS011;3295;38.928;-77.052;2023-07-28T12:07:00;12.27;;;6.05;;
6523;SDS011;3295;38.928;-77.052;2023-07-28T12:09:28;11.87;;;5.80;;
6523;SDS011;3295;38.928;-77.052;2023-07-28T12:11:57;10.55;;;5.97;;
6523;SDS011;3295;38.928;-77.052;2023-07-28T12:14:32;10.15;;;5.70;;
6523;SDS011;3295;38.928;-77.052;2023-07-28T12:17:00;11.38;;;6.28;;
6523;SDS011;3295;38.928;-77.052;2023-07-28T12:19:29;13.20;;;5.97;;
6523;SDS011;3295;38.928;-77.052;2023-07-28T12:21:56;13.57;;;6.10;;
6523;SDS011;3295;38.928;-77.052;2023-07-28T12:24:24;11.10;;;5.70;;
6523;SDS011;3295;38.928;-77.052;2023-07-28T12:26:51;11.73;;;5.82;;
6523;SDS011;3295;38.928;-77.052;2023-07-28T12:29:19;13.15;;;5.70;;
6523;SDS011;3295;38.928;-77.052;2023-07-28T12:31:49;12.90;;;5.80;;
6523;SDS011;3295;38.928;-77.052;2023-07-28T12:34:16;15.77;;;5.90;;
6523;SDS011;3295;38.928;-77.052;2023-07-28T12:36:44;11.02;;;5.88;;
6523;SDS011;3295;38.928;-77.052;2023-07-28T12:39:11;10.82;;;5.78;;
6523;SDS011;3295;38.928;-77.052;2023-07-28T12:41:39;12.27;;;5.93;;
6523;SDS011;3295;38.928;-77.052;2023-07-28T12:44:06;11.35;;;5.50;;
6523;SDS011;3295;38.928;-77.052;2023-07-28T12:46:34;11.57;;;5.80;;
6523;SDS011;3295;38.928;-77.052;2023-07-28T12:49:04;10.43;;;5.90;;
6523;SDS011;3295;38.928;-77.052;2023-07-28T12:51:32;11.40;;;6.35;;
6523;SDS011;3295;38.928;-77.052;2023-07-28T12:54:00;10.65;;;5.63;;
6523;SDS011;3295;38.928;-77.052;2023-07-28T12:56:27;9.57;;;5.70;;
6523;SDS011;3295;38.928;-77.052;2023-07-28T12:58:54;13.13;;;6.15;;
6523;SDS011;3295;38.928;-77.052;2023-07-28T13:01:22;15.80;;;6.05;;
6523;SDS011;3295;38.928;-77.052;2023-07-28T13:03:49;9.68;;;5.85;;
6523;SDS011;3295;38.928;-77.052;2023-07-28T13:06:19;11.63;;;6.03;;
6523;SDS011;3295;38.928;-77.052;2023-07-28T13:08:46;11.18;;;5.75;;
6523;SDS011;3295;38.928;-77.052;2023-07-28T13:11:14;12.80;;;6.05;;
6523;SDS011;3295;38.928;-77.052;2023-07-28T13:13:42;11.25;;;5.78;;
6523;SDS011;3295;38.928;-77.052;2023-07-28T13:16:09;11.43;;;5.85;;
6523;SDS011;3295;38.928;-77.052;2023-07-28T13:18:36;11.60;;;6.22;;
6523;SDS011;3295;38.928;-77.052;2023-07-28T13:21:05;13.70;;;6.68;;
6523;SDS011;3295;38.928;-77.052;2023-07-28T13:23:34;10.82;;;5.65;;
6523;SDS011;3295;38.928;-77.052;2023-07-28T13:26:01;10.25;;;5.82;;
6523;SDS011;3295;38.928;-77.052;2023-07-28T13:28:30;9.80;;;5.65;;
6523;SDS011;3295;38.928;-77.052;2023-07-28T13:30:57;11.65;;;5.65;;
6523;SDS011;3295;38.928;-77.052;2023-07-28T13:33:24;9.77;;;5.60;;
6523;SDS011;3295;38.928;-77.052;2023-07-28T13:35:52;10.68;;;5.60;;
6523;SDS011;3295;38.928;-77.052;2023-07-28T13:38:20;11.60;;;6.30;;
6523;SDS011;3295;38.928;-77.052;2023-07-28T13:40:48;10.65;;;5.78;;
6523;SDS011;3295;38.928;-77.052;2023-07-28T13:43:16;10.80;;;6.22;;
6523;SDS011;3295;38.928;-77.052;2023-07-28T13:45:43;10.68;;;6.20;;
6523;SDS011;3295;38.928;-77.052;2023-07-28T13:48:10;12.20;;;6.00;;
6523;SDS011;3295;38.928;-77.052;2023-07-28T13:50:39;10.65;;;5.78;;
6523;SDS011;3295;38.928;-77.052;2023-07-28T13:53:06;13.43;;;5.65;;
6523;SDS011;3295;38.928;-77.052;2023-07-28T13:55:34;9.50;;;5.50;;
6523;SDS011;3295;38.928;-77.052;2023-07-28T13:58:03;9.60;;;5.68;;
6523;SDS011;3295;38.928;-77.052;2023-07-28T14:00:32;9.60;;;5.60;;
6523;SDS011;3295;38.928;-77.052;2023-07-28T14:02:59;11.15;;;5.97;;
6523;SDS011;3295;38.928;-77.052;2023-07-28T14:05:27;10.80;;;5.97;;
6523;SDS011;3295;38.928;-77.052;2023-07-28T14:07:56;11.43;;;6.25;;
6523;SDS011;3295;38.928;-77.052;2023-07-28T14:10:25;10.10;;;5.80;;
6523;SDS011;3295;38.928;-77.052;2023-07-28T14:12:53;12.38;;;5.47;;
6523;SDS011;3295;38.928;-77.052;2023-07-28T14:15:22;11.90;;;6.07;;
6523;SDS011;3295;38.928;-77.052;2023-07-28T14:17:49;9.88;;;5.85;;
6523;SDS011;3295;38.928;-77.052;2023-07-28T14:20:17;11.88;;;5.70;;
6523;SDS011;3295;38.928;-77.052;2023-07-28T14:22:44;8.18;;;5.30;;
6523;SDS011;3295;38.928;-77.052;2023-07-28T14:25:12;11.02;;;5.55;;
6523;SDS011;3295;38.928;-77.052;2023-07-28T14:27:39;9.95;;;5.47;;
6523;SDS011;3295;38.928;-77.052;2023-07-28T14:30:08;10.32;;;5.60;;
6523;SDS011;3295;38.928;-77.052;2023-07-28T14:32:37;12.40;;;5.90;;
6523;SDS011;3295;38.928;-77.052;2023-07-28T14:35:04;11.63;;;5.55;;
6523;SDS011;3295;38.928;-77.052;2023-07-28T14:37:34;9.38;;;5.43;;
6523;SDS011;3295;38.928;-77.052;2023-07-28T14:40:01;9.38;;;5.47;;
6523;SDS011;3295;38.928;-77.052;2023-07-28T14:42:29;10.43;;;5.32;;
6523;SDS011;3295;38.928;-77.052;2023-07-28T14:44:56;11.15;;;5.82;;
6523;SDS011;3295;38.928;-77.052;2023-07-28T14:47:23;10.15;;;5.32;;
6523;SDS011;3295;38.928;-77.052;2023-07-28T14:49:52;11.02;;;5.93;;
6523;SDS011;3295;38.928;-77.052;2023-07-28T14:52:20;11.38;;;6.38;;
6523;SDS011;3295;38.928;-77.052;2023-07-28T14:54:47;14.30;;;5.70;;